PWSweather.com
Personal Weather Stations
Station Observations

SkegnessGB

Lat: 53.147585, Lon: 0.345774

Elevation: 18

Station Type: Fine Offset WH3080

http://www.skegnessweather.info/

High Low Average
Temperature 43.7°F6.5°C 33.4°F0.8°C 38.9°F3.8°C
Dew Point 38.3°F3.5°C 29.7°F-1.3°C 34.2°F1.2°C
Winds 15.7 mph 25.3 kmh 1.4 mph 2.3 kmh 6.0 mph SSW9.7 kmh SSW
Wind Gusts 15.0 mph24.1 kmh 2.5 mph4.0 kmh 7.0 mph11.3 kmh
Humidity 86% 80% 83%
Pressure 29.65 in1004.1 mb 29.46 in997.6 mb -
Precipitation 0.02 in0.5 mm - -
Hour Temp Dew Point Humidity Winds Wind Gusts Pressure Precip Precip Rate Daily Precip Total
12:00 AM 42.6°F5.9°C 36.9°F2.7°C 80% 9.0 mph SW14.5 kmh SW 10.8 mph17.4 kmh 29.60 in1002.4 mb 0.00 in0.0 mm 0.00 in0.0 mm 0.00 in0.0 mm
12:10 AM 42.3°F5.7°C 36.5°F2.5°C 80% 7.4 mph SW11.9 kmh SW 7.6 mph12.2 kmh 29.61 in1002.7 mb 0.00 in0.0 mm 0.00 in0.0 mm 0.00 in0.0 mm
12:20 AM 42.1°F5.6°C 36.4°F2.4°C 80% 7.1 mph SW11.4 kmh SW 8.4 mph13.5 kmh 29.61 in1002.7 mb 0.00 in0.0 mm 0.00 in0.0 mm 0.00 in0.0 mm
12:30 AM 42.1°F5.6°C 36.4°F2.4°C 80% 7.8 mph SW12.6 kmh SW 8.4 mph13.5 kmh 29.61 in1002.7 mb 0.00 in0.0 mm 0.00 in0.0 mm 0.00 in0.0 mm
12:40 AM 42.1°F5.6°C 36.7°F2.6°C 81% 7.1 mph SW11.4 kmh SW 10.1 mph16.3 kmh 29.63 in1003.4 mb 0.00 in0.0 mm 0.00 in0.0 mm 0.00 in0.0 mm
12:50 AM 42.1°F5.6°C 36.7°F2.6°C 81% 7.4 mph WSW11.9 kmh WSW 8.4 mph13.5 kmh 29.62 in1003.0 mb 0.00 in0.0 mm 0.00 in0.0 mm 0.00 in0.0 mm
01:20 AM 41.4°F5.2°C 35.7°F2.1°C 80% 7.6 mph SSW12.2 kmh SSW 8.4 mph13.5 kmh 29.63 in1003.4 mb 0.00 in0.0 mm 0.00 in0.0 mm 0.00 in0.0 mm
01:30 AM 41.0°F5.0°C 35.3°F1.8°C 80% 7.3 mph S11.7 kmh S 7.6 mph12.2 kmh 29.62 in1003.0 mb 0.00 in0.0 mm 0.00 in0.0 mm 0.00 in0.0 mm
01:40 AM 40.6°F4.8°C 35.0°F1.7°C 80% 6.8 mph WSW10.9 kmh WSW 7.6 mph12.2 kmh 29.62 in1003.0 mb 0.00 in0.0 mm 0.00 in0.0 mm 0.00 in0.0 mm
01:50 AM 40.6°F4.8°C 35.0°F1.7°C 80% 8.1 mph S13.0 kmh S 10.1 mph16.3 kmh 29.63 in1003.4 mb 0.00 in0.0 mm 0.00 in0.0 mm 0.00 in0.0 mm
02:00 AM 40.6°F4.8°C 35.0°F1.7°C 80% 6.9 mph SW11.1 kmh SW 10.1 mph16.3 kmh 29.64 in1003.7 mb 0.00 in0.0 mm 0.00 in0.0 mm 0.00 in0.0 mm
02:10 AM 40.6°F4.8°C 35.0°F1.7°C 80% 6.6 mph SW10.6 kmh SW 7.6 mph12.2 kmh 29.65 in1004.1 mb 0.00 in0.0 mm 0.00 in0.0 mm 0.00 in0.0 mm
02:20 AM 40.5°F4.7°C 34.8°F1.6°C 80% 5.2 mph SW8.4 kmh SW 5.9 mph9.5 kmh 29.65 in1004.1 mb 0.00 in0.0 mm 0.00 in0.0 mm 0.00 in0.0 mm
02:30 AM 40.3°F4.6°C 34.6°F1.4°C 80% 5.4 mph SW8.7 kmh SW 7.6 mph12.2 kmh 29.65 in1004.1 mb 0.00 in0.0 mm 0.00 in0.0 mm 0.00 in0.0 mm
02:40 AM 40.1°F4.5°C 34.4°F1.3°C 80% 4.2 mph S6.8 kmh S 4.9 mph7.9 kmh 29.65 in1004.1 mb 0.00 in0.0 mm 0.00 in0.0 mm 0.00 in0.0 mm
02:50 AM 39.7°F4.3°C 34.1°F1.2°C 80% 4.9 mph SW7.9 kmh SW 5.9 mph9.5 kmh 29.65 in1004.1 mb 0.00 in0.0 mm 0.00 in0.0 mm 0.00 in0.0 mm
03:00 AM 39.2°F4.0°C 33.5°F0.8°C 80% 3.7 mph SW6.0 kmh SW 4.2 mph6.8 kmh 29.65 in1004.1 mb 0.00 in0.0 mm 0.00 in0.0 mm 0.00 in0.0 mm
03:10 AM 38.7°F3.7°C 33.0°F0.6°C 80% 5.2 mph SSW8.4 kmh SSW 4.9 mph7.9 kmh 29.65 in1004.1 mb 0.00 in0.0 mm 0.00 in0.0 mm 0.00 in0.0 mm
03:20 AM 38.3°F3.5°C 32.7°F0.4°C 80% 4.0 mph SSE6.4 kmh SSE 4.9 mph7.9 kmh 29.64 in1003.7 mb 0.00 in0.0 mm 0.00 in0.0 mm 0.00 in0.0 mm
03:30 AM 37.9°F3.3°C 32.6°F0.3°C 81% 3.4 mph SW5.5 kmh SW 3.4 mph5.5 kmh 29.64 in1003.7 mb 0.00 in0.0 mm 0.00 in0.0 mm 0.00 in0.0 mm
03:40 AM 37.9°F3.3°C 32.6°F0.3°C 81% 4.4 mph SE7.1 kmh SE 4.9 mph7.9 kmh 29.64 in1003.7 mb 0.00 in0.0 mm 0.00 in0.0 mm 0.00 in0.0 mm
03:50 AM 38.1°F3.4°C 33.1°F0.6°C 82% 5.9 mph SSW9.5 kmh SSW 5.9 mph9.5 kmh 29.65 in1004.1 mb 0.00 in0.0 mm 0.00 in0.0 mm 0.00 in0.0 mm
04:00 AM 38.1°F3.4°C 33.1°F0.6°C 82% 6.1 mph SSW9.8 kmh SSW 8.4 mph13.5 kmh 29.64 in1003.7 mb 0.00 in0.0 mm 0.00 in0.0 mm 0.00 in0.0 mm
04:10 AM 37.9°F3.3°C 32.9°F0.5°C 82% 7.5 mph S12.1 kmh S 7.6 mph12.2 kmh 29.63 in1003.4 mb 0.00 in0.0 mm 0.00 in0.0 mm 0.00 in0.0 mm
04:20 AM 37.8°F3.2°C 32.8°F0.4°C 82% 5.6 mph SSE9.0 kmh SSE 6.6 mph10.6 kmh 29.63 in1003.4 mb 0.00 in0.0 mm 0.00 in0.0 mm 0.00 in0.0 mm
04:30 AM 37.8°F3.2°C 33.1°F0.6°C 83% 4.9 mph S7.9 kmh S 4.9 mph7.9 kmh 29.64 in1003.7 mb 0.00 in0.0 mm 0.00 in0.0 mm 0.00 in0.0 mm
04:40 AM 37.6°F3.1°C 32.9°F0.5°C 83% 4.0 mph SSW6.4 kmh SSW 4.9 mph7.9 kmh 29.64 in1003.7 mb 0.00 in0.0 mm 0.00 in0.0 mm 0.00 in0.0 mm
04:50 AM 37.4°F3.0°C 32.7°F0.4°C 83% 4.2 mph S6.8 kmh S 4.9 mph7.9 kmh 29.64 in1003.7 mb 0.00 in0.0 mm 0.00 in0.0 mm 0.00 in0.0 mm
05:00 AM 37.2°F2.9°C 32.5°F0.3°C 83% 4.2 mph SW6.8 kmh SW 4.9 mph7.9 kmh 29.64 in1003.7 mb 0.00 in0.0 mm 0.00 in0.0 mm 0.00 in0.0 mm
05:10 AM 37.0°F2.8°C 32.4°F0.2°C 83% 3.9 mph SW6.3 kmh SW 4.2 mph6.8 kmh 29.63 in1003.4 mb 0.00 in0.0 mm 0.00 in0.0 mm 0.00 in0.0 mm
05:20 AM 36.9°F2.7°C 32.2°F0.1°C 83% 3.3 mph SSE5.3 kmh SSE 3.4 mph5.5 kmh 29.63 in1003.4 mb 0.00 in0.0 mm 0.00 in0.0 mm 0.00 in0.0 mm
05:30 AM 36.7°F2.6°C 32.0°F0.0°C 83% 3.8 mph S6.1 kmh S 4.2 mph6.8 kmh 29.63 in1003.4 mb 0.00 in0.0 mm 0.00 in0.0 mm 0.00 in0.0 mm
05:40 AM 36.5°F2.5°C 31.8°F-0.1°C 83% 4.2 mph SSW6.8 kmh SSW 4.9 mph7.9 kmh 29.63 in1003.4 mb 0.00 in0.0 mm 0.00 in0.0 mm 0.00 in0.0 mm
05:50 AM 36.5°F2.5°C 31.8°F-0.1°C 83% 3.8 mph S6.1 kmh S 4.2 mph6.8 kmh 29.62 in1003.0 mb 0.00 in0.0 mm 0.00 in0.0 mm 0.00 in0.0 mm
06:00 AM 36.3°F2.4°C 31.7°F-0.2°C 83% 3.3 mph SW5.3 kmh SW 4.2 mph6.8 kmh 29.62 in1003.0 mb 0.00 in0.0 mm 0.00 in0.0 mm 0.00 in0.0 mm
06:10 AM 36.3°F2.4°C 31.7°F-0.2°C 83% 4.0 mph SW6.4 kmh SW 4.9 mph7.9 kmh 29.62 in1003.0 mb 0.00 in0.0 mm 0.00 in0.0 mm 0.00 in0.0 mm
06:20 AM 36.3°F2.4°C 31.7°F-0.2°C 83% 3.4 mph SW5.5 kmh SW 3.4 mph5.5 kmh 29.62 in1003.0 mb 0.00 in0.0 mm 0.00 in0.0 mm 0.00 in0.0 mm
06:30 AM 36.3°F2.4°C 31.7°F-0.2°C 83% 4.2 mph SSW6.8 kmh SSW 4.2 mph6.8 kmh 29.62 in1003.0 mb 0.00 in0.0 mm 0.00 in0.0 mm 0.00 in0.0 mm
06:40 AM 36.5°F2.5°C 32.1°F0.1°C 84% 4.9 mph SSW7.9 kmh SSW 7.6 mph12.2 kmh 29.62 in1003.0 mb 0.00 in0.0 mm 0.00 in0.0 mm 0.00 in0.0 mm
06:50 AM 36.7°F2.6°C 32.3°F0.2°C 84% 5.9 mph WSW9.5 kmh WSW 7.6 mph12.2 kmh 29.62 in1003.0 mb 0.00 in0.0 mm 0.00 in0.0 mm 0.00 in0.0 mm
07:00 AM 36.7°F2.6°C 32.3°F0.2°C 84% 4.4 mph SW7.1 kmh SW 5.9 mph9.5 kmh 29.62 in1003.0 mb 0.00 in0.0 mm 0.00 in0.0 mm 0.00 in0.0 mm
07:10 AM 36.7°F2.6°C 32.3°F0.2°C 84% 4.3 mph SW6.9 kmh SW 4.2 mph6.8 kmh 29.61 in1002.7 mb 0.00 in0.0 mm 0.00 in0.0 mm 0.00 in0.0 mm
07:20 AM 36.7°F2.6°C 32.3°F0.2°C 84% 4.8 mph S7.7 kmh S 4.9 mph7.9 kmh 29.61 in1002.7 mb 0.00 in0.0 mm 0.00 in0.0 mm 0.00 in0.0 mm
07:30 AM 36.5°F2.5°C 32.1°F0.1°C 84% 4.8 mph SSW7.7 kmh SSW 6.6 mph10.6 kmh 29.61 in1002.7 mb 0.00 in0.0 mm 0.00 in0.0 mm 0.00 in0.0 mm
07:40 AM 36.3°F2.4°C 31.9°F-0.1°C 84% 3.6 mph SW5.8 kmh SW 4.2 mph6.8 kmh 29.61 in1002.7 mb 0.00 in0.0 mm 0.00 in0.0 mm 0.00 in0.0 mm
07:50 AM 36.1°F2.3°C 31.8°F-0.1°C 84% 3.8 mph SW6.1 kmh SW 4.9 mph7.9 kmh 29.61 in1002.7 mb 0.00 in0.0 mm 0.00 in0.0 mm 0.00 in0.0 mm
08:00 AM 36.3°F2.4°C 31.9°F-0.1°C 84% 4.2 mph SSW6.8 kmh SSW 4.2 mph6.8 kmh 29.61 in1002.7 mb 0.00 in0.0 mm 0.00 in0.0 mm 0.00 in0.0 mm
08:10 AM 36.9°F2.7°C 32.5°F0.3°C 84% 6.3 mph SSW10.1 kmh SSW 7.6 mph12.2 kmh 29.61 in1002.7 mb 0.00 in0.0 mm 0.00 in0.0 mm 0.00 in0.0 mm
08:20 AM 37.2°F2.9°C 32.8°F0.4°C 84% 6.9 mph S11.1 kmh S 6.6 mph10.6 kmh 29.60 in1002.4 mb 0.00 in0.0 mm 0.00 in0.0 mm 0.00 in0.0 mm
08:30 AM 37.4°F3.0°C 33.3°F0.7°C 85% 8.5 mph SSW13.7 kmh SSW 10.8 mph17.4 kmh 29.60 in1002.4 mb 0.00 in0.0 mm 0.00 in0.0 mm 0.00 in0.0 mm
08:40 AM 37.8°F3.2°C 33.7°F0.9°C 85% 8.3 mph WSW13.4 kmh WSW 10.8 mph17.4 kmh 29.59 in1002.0 mb 0.00 in0.0 mm 0.00 in0.0 mm 0.00 in0.0 mm
08:50 AM 38.1°F3.4°C 34.0°F1.1°C 85% 10.3 mph WSW16.6 kmh WSW 10.1 mph16.3 kmh 29.59 in1002.0 mb 0.00 in0.0 mm 0.00 in0.0 mm 0.00 in0.0 mm
09:00 AM 38.5°F3.6°C 34.4°F1.3°C 85% 10.0 mph S16.1 kmh S 10.1 mph16.3 kmh 29.59 in1002.0 mb 0.00 in0.0 mm 0.00 in0.0 mm 0.00 in0.0 mm
09:10 AM 38.7°F3.7°C 34.2°F1.2°C 84% 8.8 mph SW14.2 kmh SW 9.1 mph14.6 kmh 29.59 in1002.0 mb 0.00 in0.0 mm 0.00 in0.0 mm 0.00 in0.0 mm
09:20 AM 39.0°F3.9°C 34.6°F1.4°C 84% 9.5 mph SSW15.3 kmh SSW 10.1 mph16.3 kmh 29.59 in1002.0 mb 0.00 in0.0 mm 0.00 in0.0 mm 0.00 in0.0 mm
09:30 AM 39.4°F4.1°C 34.9°F1.6°C 84% 9.2 mph SSW14.8 kmh SSW 9.1 mph14.6 kmh 29.58 in1001.7 mb 0.00 in0.0 mm 0.00 in0.0 mm 0.00 in0.0 mm
09:40 AM 39.7°F4.3°C 35.3°F1.8°C 84% 9.1 mph SW14.6 kmh SW 10.1 mph16.3 kmh 29.58 in1001.7 mb 0.00 in0.0 mm 0.00 in0.0 mm 0.00 in0.0 mm
09:50 AM 39.9°F4.4°C 35.5°F1.9°C 84% 7.7 mph SSW12.4 kmh SSW 7.6 mph12.2 kmh 29.59 in1002.0 mb 0.00 in0.0 mm 0.00 in0.0 mm 0.00 in0.0 mm
10:00 AM 40.3°F4.6°C 35.8°F2.1°C 84% 10.0 mph S16.1 kmh S 10.8 mph17.4 kmh 29.58 in1001.7 mb 0.00 in0.0 mm 0.00 in0.0 mm 0.00 in0.0 mm
10:10 AM 40.6°F4.8°C 36.2°F2.3°C 84% 11.8 mph S19.0 kmh S 10.8 mph17.4 kmh 29.58 in1001.7 mb 0.00 in0.0 mm 0.00 in0.0 mm 0.00 in0.0 mm
10:20 AM 40.8°F4.9°C 36.4°F2.4°C 84% 12.4 mph SE20.0 kmh SE 11.8 mph19.0 kmh 29.57 in1001.4 mb 0.00 in0.0 mm 0.00 in0.0 mm 0.00 in0.0 mm
10:30 AM 41.0°F5.0°C 36.2°F2.3°C 83% 12.4 mph S20.0 kmh S 13.3 mph21.4 kmh 29.56 in1001.0 mb 0.00 in0.0 mm 0.00 in0.0 mm 0.00 in0.0 mm
10:40 AM 41.0°F5.0°C 36.2°F2.3°C 83% 13.6 mph SSW21.9 kmh SSW 13.3 mph21.4 kmh 29.56 in1001.0 mb 0.00 in0.0 mm 0.00 in0.0 mm 0.00 in0.0 mm
10:50 AM 40.8°F4.9°C 36.1°F2.3°C 83% 11.7 mph S18.8 kmh S 11.8 mph19.0 kmh 29.56 in1001.0 mb 0.00 in0.0 mm 0.00 in0.0 mm 0.00 in0.0 mm
11:00 AM 41.0°F5.0°C 36.2°F2.3°C 83% 13.8 mph SSE22.2 kmh SSE 15.0 mph24.1 kmh 29.55 in1000.7 mb 0.00 in0.0 mm 0.00 in0.0 mm 0.00 in0.0 mm
11:10 AM 41.4°F5.2°C 36.6°F2.6°C 83% 12.8 mph S20.6 kmh S 10.8 mph17.4 kmh 29.55 in1000.7 mb 0.00 in0.0 mm 0.00 in0.0 mm 0.00 in0.0 mm
11:20 AM 41.5°F5.3°C 36.8°F2.7°C 83% 12.8 mph S20.6 kmh S 12.5 mph20.1 kmh 29.55 in1000.7 mb 0.00 in0.0 mm 0.00 in0.0 mm 0.00 in0.0 mm
11:30 AM 41.7°F5.4°C 36.9°F2.7°C 83% 10.4 mph SSW16.7 kmh SSW 10.8 mph17.4 kmh 29.55 in1000.7 mb 0.00 in0.0 mm 0.00 in0.0 mm 0.00 in0.0 mm
11:40 AM 42.1°F5.6°C 37.3°F2.9°C 83% 13.6 mph SE21.9 kmh SE 13.3 mph21.4 kmh 29.54 in1000.3 mb 0.00 in0.0 mm 0.00 in0.0 mm 0.00 in0.0 mm
11:50 AM 42.3°F5.7°C 37.2°F2.9°C 82% 11.8 mph S19.0 kmh S 12.5 mph20.1 kmh 29.53 in1000.0 mb 0.00 in0.0 mm 0.00 in0.0 mm 0.00 in0.0 mm
12:00 PM 42.4°F5.8°C 37.3°F2.9°C 82% 12.9 mph S20.8 kmh S 14.3 mph23.0 kmh 29.53 in1000.0 mb 0.00 in0.0 mm 0.00 in0.0 mm 0.00 in0.0 mm
12:10 PM 42.6°F5.9°C 37.5°F3.1°C 82% 11.8 mph S19.0 kmh S 12.5 mph20.1 kmh 29.52 in999.7 mb 0.00 in0.0 mm 0.00 in0.0 mm 0.00 in0.0 mm
12:20 PM 42.6°F5.9°C 37.5°F3.1°C 82% 10.6 mph S17.1 kmh S 15.0 mph24.1 kmh 29.51 in999.3 mb 0.00 in0.0 mm 0.00 in0.0 mm 0.00 in0.0 mm
12:30 PM 42.6°F5.9°C 37.5°F3.1°C 82% 11.1 mph SSW17.9 kmh SSW 13.3 mph21.4 kmh 29.51 in999.3 mb 0.00 in0.0 mm 0.00 in0.0 mm 0.00 in0.0 mm
12:40 PM 43.0°F6.1°C 37.9°F3.3°C 82% 9.7 mph SSW15.6 kmh SSW 13.3 mph21.4 kmh 29.51 in999.3 mb 0.00 in0.0 mm 0.00 in0.0 mm 0.00 in0.0 mm
12:50 PM 43.2°F6.2°C 38.0°F3.3°C 82% 8.0 mph S12.9 kmh S 9.1 mph14.6 kmh 29.50 in999.0 mb 0.00 in0.0 mm 0.00 in0.0 mm 0.00 in0.0 mm
01:00 PM 43.3°F6.3°C 38.2°F3.4°C 82% 9.8 mph SSW15.8 kmh SSW 12.5 mph20.1 kmh 29.49 in998.6 mb 0.00 in0.0 mm 0.00 in0.0 mm 0.00 in0.0 mm
01:10 PM 43.5°F6.4°C 38.1°F3.4°C 81% 12.0 mph WSW19.3 kmh WSW 10.8 mph17.4 kmh 29.49 in998.6 mb 0.00 in0.0 mm 0.00 in0.0 mm 0.00 in0.0 mm
01:20 PM 43.5°F6.4°C 38.1°F3.4°C 81% 12.3 mph SSW19.8 kmh SSW 11.8 mph19.0 kmh 29.49 in998.6 mb 0.00 in0.0 mm 0.00 in0.0 mm 0.00 in0.0 mm
01:30 PM 43.7°F6.5°C 38.3°F3.5°C 81% 10.6 mph S17.1 kmh S 10.1 mph16.3 kmh 29.49 in998.6 mb 0.00 in0.0 mm 0.00 in0.0 mm 0.00 in0.0 mm
01:40 PM 43.7°F6.5°C 38.3°F3.5°C 81% 11.3 mph SSW18.2 kmh SSW 11.8 mph19.0 kmh 29.48 in998.3 mb 0.00 in0.0 mm 0.00 in0.0 mm 0.00 in0.0 mm
02:00 PM 43.2°F6.2°C 37.7°F3.2°C 81% 15.7 mph SSE25.3 kmh SSE 12.5 mph20.1 kmh 29.48 in998.3 mb 0.00 in0.0 mm 0.00 in0.0 mm 0.00 in0.0 mm
02:30 PM 43.2°F6.2°C 38.0°F3.3°C 82% 7.2 mph S11.6 kmh S 4.9 mph7.9 kmh 29.47 in998.0 mb 0.00 in0.0 mm 0.00 in0.0 mm 0.00 in0.0 mm
03:00 PM 42.6°F5.9°C 37.5°F3.1°C 82% 8.5 mph SW13.7 kmh SW 6.6 mph10.6 kmh 29.46 in997.6 mb 0.00 in0.0 mm 0.00 in0.0 mm 0.00 in0.0 mm
03:30 PM 42.4°F5.8°C 37.6°F3.1°C 83% 7.2 mph SE11.6 kmh SE 5.9 mph9.5 kmh 29.46 in997.6 mb 0.00 in0.0 mm 0.00 in0.0 mm 0.00 in0.0 mm
04:00 PM 41.7°F5.4°C 36.9°F2.7°C 83% 4.3 mph S6.9 kmh S 3.4 mph5.5 kmh 29.46 in997.6 mb 0.00 in0.0 mm 0.00 in0.0 mm 0.00 in0.0 mm
04:10 PM 41.7°F5.4°C 36.9°F2.7°C 83% 4.3 mph S6.9 kmh S 3.4 mph5.5 kmh 29.46 in997.6 mb 0.00 in0.0 mm 0.00 in0.0 mm 0.00 in0.0 mm
04:20 PM 41.7°F5.4°C 36.9°F2.7°C 83% 2.5 mph S4.0 kmh S 4.9 mph7.9 kmh 29.46 in997.6 mb 0.00 in0.0 mm 0.00 in0.0 mm 0.00 in0.0 mm
04:30 PM 41.7°F5.4°C 36.9°F2.7°C 83% 1.7 mph W2.7 kmh W 3.4 mph5.5 kmh 29.46 in997.6 mb 0.00 in0.0 mm 0.00 in0.0 mm 0.00 in0.0 mm
04:40 PM 41.7°F5.4°C 37.2°F2.9°C 84% 3.3 mph SSW5.3 kmh SSW 3.4 mph5.5 kmh 29.47 in998.0 mb 0.00 in0.0 mm 0.00 in0.0 mm 0.00 in0.0 mm
04:50 PM 41.9°F5.5°C 37.4°F3.0°C 84% 3.8 mph E6.1 kmh E 4.9 mph7.9 kmh 29.46 in997.6 mb 0.00 in0.0 mm 0.00 in0.0 mm 0.00 in0.0 mm
05:00 PM 42.1°F5.6°C 37.6°F3.1°C 84% 4.5 mph WSW7.2 kmh WSW 4.9 mph7.9 kmh 29.46 in997.6 mb 0.00 in0.0 mm 0.00 in0.0 mm 0.00 in0.0 mm
05:10 PM 42.1°F5.6°C 37.6°F3.1°C 84% 5.5 mph SSW8.9 kmh SSW 7.6 mph12.2 kmh 29.46 in997.6 mb 0.00 in0.0 mm 0.00 in0.0 mm 0.00 in0.0 mm
05:20 PM 42.1°F5.6°C 37.6°F3.1°C 84% 5.3 mph SW8.5 kmh SW 5.9 mph9.5 kmh 29.47 in998.0 mb 0.00 in0.0 mm 0.00 in0.0 mm 0.00 in0.0 mm
05:30 PM 42.1°F5.6°C 37.6°F3.1°C 84% 7.1 mph SSW11.4 kmh SSW 8.4 mph13.5 kmh 29.47 in998.0 mb 0.00 in0.0 mm 0.00 in0.0 mm 0.00 in0.0 mm
05:40 PM 41.5°F5.3°C 37.1°F2.8°C 84% 7.6 mph SW12.2 kmh SW 10.1 mph16.3 kmh 29.47 in998.0 mb 0.01 in0.3 mm 0.06 in1.5 mm 0.01 in0.3 mm
05:50 PM 41.0°F5.0°C 36.5°F2.5°C 84% 5.1 mph SW8.2 kmh SW 6.6 mph10.6 kmh 29.47 in998.0 mb 0.01 in0.3 mm 0.00 in0.0 mm 0.01 in0.3 mm
06:00 PM 40.8°F4.9°C 36.4°F2.4°C 84% 4.6 mph SSE7.4 kmh SSE 4.9 mph7.9 kmh 29.47 in998.0 mb 0.01 in0.3 mm 0.00 in0.0 mm 0.01 in0.3 mm
06:10 PM 40.6°F4.8°C 36.2°F2.3°C 84% 3.2 mph SSW5.1 kmh SSW 4.9 mph7.9 kmh 29.47 in998.0 mb 0.01 in0.3 mm 0.00 in0.0 mm 0.01 in0.3 mm
06:20 PM 40.1°F4.5°C 35.7°F2.1°C 84% 3.6 mph S5.8 kmh S 4.2 mph6.8 kmh 29.47 in998.0 mb 0.01 in0.3 mm 0.00 in0.0 mm 0.01 in0.3 mm
06:30 PM 39.6°F4.2°C 35.1°F1.7°C 84% 3.7 mph S6.0 kmh S 4.9 mph7.9 kmh 29.47 in998.0 mb 0.01 in0.3 mm 0.00 in0.0 mm 0.01 in0.3 mm
06:40 PM 39.2°F4.0°C 34.8°F1.6°C 84% 2.9 mph SW4.7 kmh SW 3.4 mph5.5 kmh 29.47 in998.0 mb 0.00 in0.0 mm 0.00 in0.0 mm 0.01 in0.3 mm
06:50 PM 38.7°F3.7°C 34.2°F1.2°C 84% 3.3 mph SW5.3 kmh SW 4.2 mph6.8 kmh 29.48 in998.3 mb 0.00 in0.0 mm 0.00 in0.0 mm 0.01 in0.3 mm
07:00 PM 38.3°F3.5°C 33.9°F1.1°C 84% 3.4 mph SW5.5 kmh SW 4.9 mph7.9 kmh 29.48 in998.3 mb 0.00 in0.0 mm 0.00 in0.0 mm 0.01 in0.3 mm
07:10 PM 38.1°F3.4°C 33.7°F0.9°C 84% 3.4 mph WSW5.5 kmh WSW 4.2 mph6.8 kmh 29.49 in998.6 mb 0.00 in0.0 mm 0.00 in0.0 mm 0.01 in0.3 mm
07:20 PM 37.9°F3.3°C 33.5°F0.8°C 84% 3.9 mph SW6.3 kmh SW 5.9 mph9.5 kmh 29.49 in998.6 mb 0.00 in0.0 mm 0.00 in0.0 mm 0.01 in0.3 mm
07:30 PM 37.6°F3.1°C 33.2°F0.7°C 84% 4.2 mph SSW6.8 kmh SSW 4.9 mph7.9 kmh 29.49 in998.6 mb 0.00 in0.0 mm 0.00 in0.0 mm 0.01 in0.3 mm
07:40 PM 37.2°F2.9°C 32.8°F0.4°C 84% 2.4 mph SW3.9 kmh SW 3.4 mph5.5 kmh 29.50 in999.0 mb 0.00 in0.0 mm 0.00 in0.0 mm 0.01 in0.3 mm
07:50 PM 37.0°F2.8°C 32.7°F0.4°C 84% 2.7 mph WSW4.3 kmh WSW 3.4 mph5.5 kmh 29.50 in999.0 mb 0.00 in0.0 mm 0.00 in0.0 mm 0.01 in0.3 mm
08:00 PM 36.7°F2.6°C 32.3°F0.2°C 84% 3.4 mph SSW5.5 kmh SSW 4.2 mph6.8 kmh 29.50 in999.0 mb 0.00 in0.0 mm 0.00 in0.0 mm 0.01 in0.3 mm
08:10 PM 36.5°F2.5°C 32.4°F0.2°C 85% 3.0 mph WSW4.8 kmh WSW 4.2 mph6.8 kmh 29.50 in999.0 mb 0.00 in0.0 mm 0.00 in0.0 mm 0.01 in0.3 mm
08:20 PM 36.1°F2.3°C 32.1°F0.1°C 85% 2.6 mph SSW4.2 kmh SSW 3.4 mph5.5 kmh 29.50 in999.0 mb 0.00 in0.0 mm 0.00 in0.0 mm 0.01 in0.3 mm
08:30 PM 36.0°F2.2°C 31.9°F-0.1°C 85% 3.7 mph SSW6.0 kmh SSW 4.9 mph7.9 kmh 29.50 in999.0 mb 0.01 in0.3 mm 0.06 in1.5 mm 0.02 in0.5 mm
08:40 PM 36.0°F2.2°C 31.9°F-0.1°C 85% 4.1 mph SW6.6 kmh SW 4.9 mph7.9 kmh 29.50 in999.0 mb 0.01 in0.3 mm 0.00 in0.0 mm 0.02 in0.5 mm
08:50 PM 35.8°F2.1°C 31.7°F-0.2°C 85% 5.2 mph SW8.4 kmh SW 4.9 mph7.9 kmh 29.50 in999.0 mb 0.01 in0.3 mm 0.00 in0.0 mm 0.02 in0.5 mm
09:00 PM 35.4°F1.9°C 31.4°F-0.3°C 85% 3.0 mph SSW4.8 kmh SSW 3.4 mph5.5 kmh 29.50 in999.0 mb 0.01 in0.3 mm 0.00 in0.0 mm 0.02 in0.5 mm
09:10 PM 35.1°F1.7°C 31.0°F-0.6°C 85% 1.4 mph SSW2.3 kmh SSW 2.5 mph4.0 kmh 29.50 in999.0 mb 0.01 in0.3 mm 0.00 in0.0 mm 0.02 in0.5 mm
09:20 PM 34.9°F1.6°C 30.8°F-0.7°C 85% 2.9 mph W4.7 kmh W 3.4 mph5.5 kmh 29.50 in999.0 mb 0.01 in0.3 mm 0.00 in0.0 mm 0.02 in0.5 mm
09:30 PM 34.9°F1.6°C 30.8°F-0.7°C 85% 2.4 mph WSW3.9 kmh WSW 3.4 mph5.5 kmh 29.50 in999.0 mb 0.00 in0.0 mm 0.00 in0.0 mm 0.02 in0.5 mm
09:40 PM 34.9°F1.6°C 30.8°F-0.7°C 85% 3.5 mph SW5.6 kmh SW 4.9 mph7.9 kmh 29.50 in999.0 mb 0.00 in0.0 mm 0.00 in0.0 mm 0.02 in0.5 mm
09:50 PM 34.9°F1.6°C 30.8°F-0.7°C 85% 4.5 mph SSW7.2 kmh SSW 4.9 mph7.9 kmh 29.50 in999.0 mb 0.00 in0.0 mm 0.00 in0.0 mm 0.02 in0.5 mm
10:00 PM 34.9°F1.6°C 30.8°F-0.7°C 85% 4.7 mph S7.6 kmh S 4.9 mph7.9 kmh 29.50 in999.0 mb 0.00 in0.0 mm 0.00 in0.0 mm 0.02 in0.5 mm
10:10 PM 34.9°F1.6°C 30.8°F-0.7°C 85% 4.4 mph SW7.1 kmh SW 6.6 mph10.6 kmh 29.50 in999.0 mb 0.00 in0.0 mm 0.00 in0.0 mm 0.02 in0.5 mm
10:20 PM 34.7°F1.5°C 30.7°F-0.7°C 85% 3.5 mph SW5.6 kmh SW 5.9 mph9.5 kmh 29.50 in999.0 mb 0.00 in0.0 mm 0.00 in0.0 mm 0.02 in0.5 mm
10:30 PM 34.7°F1.5°C 30.7°F-0.7°C 85% 4.1 mph SSE6.6 kmh SSE 6.6 mph10.6 kmh 29.50 in999.0 mb 0.00 in0.0 mm 0.00 in0.0 mm 0.02 in0.5 mm
10:40 PM 34.3°F1.3°C 30.3°F-0.9°C 85% 3.0 mph WSW4.8 kmh WSW 3.4 mph5.5 kmh 29.50 in999.0 mb 0.00 in0.0 mm 0.00 in0.0 mm 0.02 in0.5 mm
10:50 PM 34.2°F1.2°C 30.1°F-1.1°C 85% 3.8 mph SW6.1 kmh SW 4.2 mph6.8 kmh 29.50 in999.0 mb 0.00 in0.0 mm 0.00 in0.0 mm 0.02 in0.5 mm
11:00 PM 34.0°F1.1°C 30.2°F-1.0°C 86% 4.3 mph SW6.9 kmh SW 5.9 mph9.5 kmh 29.50 in999.0 mb 0.00 in0.0 mm 0.00 in0.0 mm 0.02 in0.5 mm
11:10 PM 34.0°F1.1°C 30.2°F-1.0°C 86% 4.5 mph WSW7.2 kmh WSW 5.9 mph9.5 kmh 29.50 in999.0 mb 0.00 in0.0 mm 0.00 in0.0 mm 0.02 in0.5 mm
11:20 PM 34.2°F1.2°C 30.4°F-0.9°C 86% 5.3 mph W8.5 kmh W 6.6 mph10.6 kmh 29.50 in999.0 mb 0.00 in0.0 mm 0.00 in0.0 mm 0.02 in0.5 mm
11:30 PM 34.0°F1.1°C 30.2°F-1.0°C 86% 4.4 mph SW7.1 kmh SW 4.9 mph7.9 kmh 29.50 in999.0 mb 0.00 in0.0 mm 0.00 in0.0 mm 0.02 in0.5 mm
11:40 PM 33.6°F0.9°C 29.9°F-1.2°C 86% 5.0 mph SSW8.0 kmh SSW 5.9 mph9.5 kmh 29.49 in998.6 mb 0.00 in0.0 mm 0.00 in0.0 mm 0.02 in0.5 mm
11:50 PM 33.4°F0.8°C 29.7°F-1.3°C 86% 6.0 mph SW9.7 kmh SW 6.6 mph10.6 kmh 29.49 in998.6 mb 0.00 in0.0 mm 0.00 in0.0 mm 0.02 in0.5 mm